createdAt,value
2018-12-24T00:02:05.208Z,1.23
2018-12-24T00:04:50.898Z,1.40
2018-12-24T00:07:19.442Z,1.20
2018-12-24T00:09:55.996Z,1.83
2018-12-24T00:12:27.318Z,1.10
2018-12-24T00:15:00.731Z,2.13
2018-12-24T00:17:50.866Z,1.00
2018-12-24T00:20:26.882Z,1.20
2018-12-24T00:23:07.097Z,1.20
2018-12-24T00:25:56.122Z,1.30
2018-12-24T00:28:40.501Z,1.00
2018-12-24T00:31:20.264Z,1.00
2018-12-24T00:34:03.233Z,1.10
2018-12-24T00:36:58.421Z,1.10
2018-12-24T00:40:02.974Z,1.00
2018-12-24T00:42:45.419Z,1.00
2018-12-24T00:45:21.961Z,1.00
2018-12-24T00:47:59.164Z,1.10
2018-12-24T00:50:27.841Z,1.10
2018-12-24T00:53:06.536Z,1.50
2018-12-24T00:55:51.089Z,1.00
2018-12-24T00:58:21.767Z,1.60
2018-12-24T01:01:12.595Z,1.00
2018-12-24T01:03:55.229Z,1.07
2018-12-24T01:06:35.437Z,1.10
2018-12-24T01:09:16.359Z,1.00
2018-12-24T01:11:52.813Z,1.00
2018-12-24T01:14:30.801Z,1.10
2018-12-24T01:17:09.021Z,1.00
2018-12-24T01:19:37.671Z,1.00
2018-12-24T01:22:07.719Z,0.90
2018-12-24T01:24:36.351Z,1.20
2018-12-24T01:27:07.900Z,1.43
2018-12-24T01:29:37.853Z,2.60
2018-12-24T01:32:06.445Z,0.93
2018-12-24T01:34:36.313Z,1.10
2018-12-24T01:37:04.900Z,1.30
2018-12-24T01:39:33.783Z,1.00
2018-12-24T01:42:03.154Z,1.07
2018-12-24T01:44:34.379Z,1.10
2018-12-24T01:47:02.841Z,0.93
2018-12-24T01:49:31.953Z,0.90
2018-12-24T01:52:03.242Z,1.00
2018-12-24T01:54:31.778Z,1.83
2018-12-24T01:57:00.320Z,1.00
2018-12-24T01:59:28.803Z,2.87
2018-12-24T02:01:57.726Z,1.30
2018-12-24T02:04:29.878Z,1.10
2018-12-24T02:07:01.244Z,1.73
2018-12-24T02:09:29.887Z,1.00
2018-12-24T02:11:58.322Z,0.90
2018-12-24T02:14:26.860Z,2.60
2018-12-24T02:16:55.257Z,1.63
2018-12-24T02:19:23.798Z,1.33
2018-12-24T02:21:52.065Z,2.27
2018-12-24T02:24:20.276Z,1.13
2018-12-24T02:26:48.896Z,1.40
2018-12-24T02:29:22.299Z,1.10
2018-12-24T02:31:50.440Z,1.00
2018-12-24T02:34:19.120Z,1.23
2018-12-24T02:36:48.903Z,1.83
2018-12-24T02:39:17.392Z,1.00
2018-12-24T02:42:02.213Z,2.60
2018-12-24T02:44:31.111Z,1.63
2018-12-24T02:47:11.739Z,1.00
2018-12-24T02:49:40.425Z,1.40
2018-12-24T02:52:09.328Z,3.33
2018-12-24T02:54:37.648Z,1.13
2018-12-24T02:57:05.904Z,2.80
2018-12-24T02:59:34.235Z,2.00
2018-12-24T03:02:02.668Z,1.20
2018-12-24T03:04:30.809Z,1.10
2018-12-24T03:06:59.028Z,1.20
2018-12-24T03:09:27.218Z,1.43
2018-12-24T03:11:56.042Z,0.90
2018-12-24T03:14:24.488Z,1.20
2018-12-24T03:16:53.003Z,1.30
2018-12-24T03:19:21.941Z,1.10
2018-12-24T03:21:50.382Z,1.20
2018-12-24T03:24:18.871Z,1.20
2018-12-24T03:26:47.513Z,1.40
2018-12-24T03:29:15.857Z,1.33
2018-12-24T03:31:52.134Z,1.30
2018-12-24T03:34:20.149Z,1.10
2018-12-24T03:36:50.675Z,1.20
2018-12-24T03:39:19.298Z,1.43
2018-12-24T03:41:47.695Z,1.40
2018-12-24T03:44:16.052Z,1.03
2018-12-24T03:46:44.574Z,1.10
2018-12-24T03:49:13.608Z,1.17
2018-12-24T03:51:41.919Z,1.27
2018-12-24T03:54:10.314Z,1.20
2018-12-24T03:56:38.513Z,1.67
2018-12-24T03:59:07.113Z,1.30
2018-12-24T04:01:36.061Z,1.00
2018-12-24T04:04:05.979Z,1.00
2018-12-24T04:06:34.550Z,1.10
2018-12-24T04:09:04.076Z,1.10
2018-12-24T04:11:32.418Z,0.90
2018-12-24T04:14:00.775Z,1.37
2018-12-24T04:16:29.335Z,1.00
2018-12-24T04:18:57.448Z,1.00
2018-12-24T04:21:25.698Z,0.90
2018-12-24T04:23:53.864Z,1.63
2018-12-24T04:26:24.750Z,1.00
2018-12-24T04:28:53.237Z,1.47
2018-12-24T04:31:23.348Z,1.83
2018-12-24T04:33:53.940Z,1.50
2018-12-24T04:36:22.481Z,1.17
2018-12-24T04:38:51.738Z,1.10
2018-12-24T04:41:20.147Z,1.10
2018-12-24T04:43:48.530Z,1.10
2018-12-24T04:46:16.847Z,1.20
2018-12-24T04:48:45.249Z,1.83
2018-12-24T04:51:13.704Z,1.00
2018-12-24T04:53:42.186Z,1.43
2018-12-24T04:56:12.847Z,1.43
2018-12-24T04:58:41.228Z,1.47
2018-12-24T05:01:09.618Z,1.70
2018-12-24T05:03:38.246Z,1.20
2018-12-24T05:06:07.894Z,1.00
2018-12-24T05:08:36.338Z,1.40
2018-12-24T05:11:04.647Z,1.83
2018-12-24T05:13:40.677Z,1.10
2018-12-24T05:16:03.430Z,2.20
2018-12-24T05:18:31.930Z,1.20
2018-12-24T05:21:00.230Z,1.20
2018-12-24T05:23:29.294Z,1.00
2018-12-24T05:25:57.502Z,1.00
2018-12-24T05:28:25.945Z,2.50
2018-12-24T05:30:54.581Z,1.30
2018-12-24T05:33:23.148Z,1.30
2018-12-24T05:35:51.614Z,1.00
2018-12-24T05:38:19.983Z,1.13
2018-12-24T05:40:48.409Z,1.20
2018-12-24T05:43:16.794Z,1.50
2018-12-24T05:45:44.972Z,1.10
2018-12-24T05:48:15.354Z,1.10
2018-12-24T05:50:46.004Z,1.10
2018-12-24T05:53:14.122Z,1.30
2018-12-24T05:55:42.405Z,1.00
2018-12-24T05:58:10.868Z,1.10
2018-12-24T06:00:41.141Z,1.10
2018-12-24T06:03:09.589Z,1.23
2018-12-24T06:05:38.168Z,1.10
2018-12-24T06:08:06.663Z,1.20
2018-12-24T06:10:38.731Z,1.10
2018-12-24T06:13:07.177Z,1.63
2018-12-24T06:15:35.758Z,1.13
2018-12-24T06:18:04.285Z,1.83
2018-12-24T06:20:37.683Z,1.07
2018-12-24T06:23:05.575Z,1.20
2018-12-24T06:25:34.150Z,1.20
2018-12-24T06:28:02.670Z,2.50
2018-12-24T06:30:32.615Z,1.73
2018-12-24T06:33:01.065Z,1.67
2018-12-24T06:35:29.617Z,1.73
2018-12-24T06:38:00.502Z,1.20
2018-12-24T06:40:39.278Z,3.43
2018-12-24T06:43:07.922Z,1.20
2018-12-24T06:45:36.586Z,1.23
2018-12-24T06:48:07.391Z,1.20
2018-12-24T06:50:35.728Z,1.20
2018-12-24T06:53:18.000Z,1.40
2018-12-24T06:55:49.169Z,1.60
2018-12-24T06:58:18.523Z,1.50
2018-12-24T07:00:50.273Z,3.10
2018-12-24T07:03:18.966Z,1.60
2018-12-24T07:05:50.317Z,1.30
2018-12-24T07:08:22.628Z,1.40
2018-12-24T07:10:51.549Z,1.43
2018-12-24T07:13:26.442Z,1.60
2018-12-24T07:16:09.988Z,1.40
2018-12-24T07:18:43.868Z,4.80
2018-12-24T07:21:15.600Z,1.57
2018-12-24T07:23:49.305Z,1.30
2018-12-24T07:26:22.038Z,1.60
2018-12-24T07:28:59.061Z,1.10
2018-12-24T07:31:25.926Z,1.70
2018-12-24T07:33:54.144Z,1.63
2018-12-24T07:36:47.424Z,1.30
2018-12-24T07:39:26.376Z,1.50
2018-12-24T07:42:06.865Z,1.93
2018-12-24T07:44:35.722Z,1.90
2018-12-24T07:47:04.318Z,3.43
2018-12-24T07:49:56.109Z,1.90
2018-12-24T07:52:24.202Z,1.70
2018-12-24T07:55:25.191Z,2.10
2018-12-24T07:57:56.880Z,2.33
2018-12-24T08:00:30.410Z,3.43
2018-12-24T08:03:45.152Z,1.90
2018-12-24T08:06:15.660Z,1.70
2018-12-24T08:09:09.974Z,1.67
2018-12-24T08:11:49.766Z,2.40
2018-12-24T08:14:33.235Z,1.83
2018-12-24T08:17:04.717Z,2.43
2018-12-24T08:20:00.230Z,2.80
2018-12-24T08:22:52.799Z,2.43
2018-12-24T08:30:10.031Z,1.80
2018-12-24T08:32:57.469Z,2.27
2018-12-24T08:35:39.208Z,1.60
2018-12-24T08:39:01.665Z,1.70
2018-12-24T08:41:33.498Z,2.17
2018-12-24T08:44:06.158Z,2.30
2018-12-24T08:46:38.219Z,2.10
2018-12-24T08:49:07.470Z,1.80
2018-12-24T08:51:42.436Z,2.57
2018-12-24T08:54:14.510Z,2.30
2018-12-24T08:56:45.945Z,2.37
2018-12-24T08:59:18.847Z,1.70
2018-12-24T09:01:47.645Z,3.37
2018-12-24T09:04:25.248Z,2.50
2018-12-24T09:07:06.161Z,1.80
2018-12-24T09:09:42.866Z,2.10
2018-12-24T09:12:12.997Z,2.00
2018-12-24T09:14:50.057Z,1.93
2018-12-24T09:17:23.630Z,1.90
2018-12-24T09:20:01.754Z,1.40
2018-12-24T09:22:46.694Z,1.60
2018-12-24T09:28:21.227Z,2.00
2018-12-24T09:31:48.413Z,4.30
2018-12-24T10:27:18.336Z,2.33
2018-12-24T10:29:54.120Z,3.13
2018-12-24T10:33:19.867Z,2.10
2018-12-24T10:51:49.914Z,3.90
2018-12-24T11:02:52.683Z,2.73
2018-12-24T11:09:31.794Z,2.07
2018-12-24T11:12:03.984Z,2.67
2018-12-24T11:14:48.338Z,1.97
2018-12-24T11:17:40.661Z,2.07
2018-12-24T11:21:02.188Z,2.10
2018-12-24T11:23:44.577Z,2.43
2018-12-24T11:26:25.790Z,1.90
2018-12-24T11:28:55.652Z,1.87
2018-12-24T11:31:24.305Z,2.23
2018-12-24T11:33:52.491Z,1.97
2018-12-24T11:36:37.894Z,1.90
2018-12-24T11:39:07.255Z,1.30
2018-12-24T11:41:38.733Z,1.30
2018-12-24T11:44:31.289Z,2.87
2018-12-24T11:47:41.366Z,1.83
2018-12-24T11:51:51.759Z,1.90
2018-12-24T11:53:24.623Z,2.80
2018-12-24T11:59:37.761Z,1.93
2018-12-24T12:02:31.697Z,1.50
2018-12-24T12:05:03.738Z,1.47
2018-12-24T12:08:21.439Z,3.00
2018-12-24T12:10:49.338Z,2.87
2018-12-24T12:13:38.904Z,1.77
2018-12-24T12:16:16.800Z,1.87
2018-12-24T12:18:45.129Z,1.87
2018-12-24T12:21:16.123Z,1.53
2018-12-24T12:23:46.957Z,1.97
2018-12-24T12:26:17.646Z,3.30
2018-12-24T12:28:45.929Z,1.97
2018-12-24T12:31:13.976Z,3.80
2018-12-24T12:33:44.863Z,4.83
2018-12-24T12:36:13.418Z,5.90
2018-12-24T12:38:41.848Z,3.80
2018-12-24T12:44:18.437Z,6.87
2018-12-24T12:46:49.892Z,4.33
2018-12-24T12:49:19.563Z,4.13
2018-12-24T12:51:51.163Z,4.90
2018-12-24T12:54:25.229Z,4.50
2018-12-24T12:56:58.833Z,2.87
2018-12-24T12:59:27.776Z,3.10
2018-12-24T13:01:57.334Z,3.20
2018-12-24T13:04:26.347Z,2.87
2018-12-24T13:06:54.971Z,2.07
2018-12-24T13:09:24.457Z,6.50
2018-12-24T13:11:53.336Z,3.30
2018-12-24T13:14:22.507Z,2.27
2018-12-24T13:16:51.354Z,3.30
2018-12-24T13:19:26.863Z,7.17
2018-12-24T13:21:55.227Z,3.90
2018-12-24T13:24:23.871Z,2.80
2018-12-24T13:26:56.733Z,2.80
2018-12-24T13:29:29.828Z,3.50
2018-12-24T13:31:57.961Z,4.87
2018-12-24T13:34:26.727Z,4.90
2018-12-24T13:38:05.234Z,4.87
2018-12-24T13:40:33.938Z,6.00
2018-12-24T13:43:20.921Z,5.93
2018-12-24T14:00:04.302Z,4.03
2018-12-24T14:10:02.553Z,6.27
2018-12-24T14:12:42.481Z,5.80
2018-12-24T14:16:47.607Z,5.70
2018-12-24T14:34:26.495Z,5.73
2018-12-24T14:40:35.696Z,7.03
2018-12-24T14:47:07.564Z,4.67
2018-12-24T15:00:49.576Z,3.40
2018-12-24T15:03:41.029Z,3.83
2018-12-24T15:06:42.670Z,2.43
2018-12-24T15:13:05.319Z,3.80
2018-12-24T15:16:12.495Z,3.30
2018-12-24T15:19:11.490Z,4.57
2018-12-24T15:22:32.623Z,2.70
2018-12-24T15:25:51.907Z,4.37
2018-12-24T15:28:51.012Z,3.87
2018-12-24T15:31:35.541Z,5.70
2018-12-24T15:44:05.007Z,4.80
2018-12-24T15:46:33.175Z,4.40
2018-12-24T15:49:00.988Z,3.77
2018-12-24T15:51:28.755Z,3.97
2018-12-24T15:53:57.987Z,4.97
2018-12-24T15:56:25.958Z,6.30
2018-12-24T15:58:55.197Z,6.07
2018-12-24T16:01:23.641Z,5.67
2018-12-24T16:03:51.681Z,6.33
2018-12-24T16:06:19.558Z,4.90
2018-12-24T16:08:47.644Z,5.27
2018-12-24T16:11:18.901Z,5.30
2018-12-24T16:13:46.688Z,4.83
2018-12-24T16:16:14.713Z,4.60
2018-12-24T16:18:43.416Z,5.43
2018-12-24T16:21:10.986Z,4.40
2018-12-24T16:23:38.694Z,4.10
2018-12-24T16:26:06.338Z,4.80
2018-12-24T16:28:38.574Z,4.20
2018-12-24T16:31:06.308Z,5.20
2018-12-24T16:33:41.351Z,7.00
2018-12-24T16:36:05.015Z,5.57
2018-12-24T16:38:33.311Z,5.47
2018-12-24T16:41:07.449Z,5.20
2018-12-24T16:43:55.377Z,6.77
2018-12-24T16:46:28.583Z,6.00
2018-12-24T16:49:01.721Z,5.00
2018-12-24T16:51:29.923Z,4.70
2018-12-24T16:53:57.600Z,4.33
2018-12-24T16:56:47.244Z,4.37
2018-12-24T16:59:49.103Z,4.27
2018-12-24T17:02:22.662Z,4.27
2018-12-24T17:05:00.491Z,5.47
2018-12-24T17:07:37.798Z,6.17
2018-12-24T17:10:13.402Z,6.20
2018-12-24T17:13:09.636Z,7.83
2018-12-24T17:16:32.911Z,5.27
2018-12-24T17:19:21.194Z,6.43
2018-12-24T17:22:00.809Z,6.47
2018-12-24T17:24:47.543Z,6.97
2018-12-24T17:27:21.395Z,7.60
2018-12-24T17:36:03.831Z,6.77
2018-12-24T17:38:43.277Z,5.63
2018-12-24T17:41:08.176Z,5.77
2018-12-24T17:44:30.960Z,5.10
2018-12-24T17:46:59.341Z,5.83
2018-12-24T17:49:31.519Z,6.03
2018-12-24T17:51:59.253Z,5.50
2018-12-24T17:54:27.054Z,6.20
2018-12-24T17:56:58.629Z,12.43
2018-12-24T17:59:26.128Z,18.07
2018-12-24T18:01:55.127Z,16.50
2018-12-24T18:04:26.319Z,17.17
2018-12-24T18:06:55.011Z,15.43
2018-12-24T18:09:23.064Z,14.07
2018-12-24T18:11:50.636Z,11.87
2018-12-24T18:14:18.380Z,14.67
2018-12-24T18:16:46.178Z,7.60
2018-12-24T18:19:14.344Z,8.73
2018-12-24T18:21:42.131Z,7.90
2018-12-24T18:24:09.869Z,8.63
2018-12-24T18:26:37.613Z,9.33
2018-12-24T18:29:05.490Z,9.30
2018-12-24T18:31:33.269Z,9.27
2018-12-24T18:34:01.334Z,8.73
2018-12-24T18:36:32.029Z,8.80
2018-12-24T18:38:59.879Z,8.97
2018-12-24T18:41:32.835Z,10.63
2018-12-24T18:44:10.712Z,8.37
2018-12-24T18:47:07.043Z,8.57
2018-12-24T18:49:41.675Z,9.53
2018-12-24T18:52:14.586Z,8.83
2018-12-24T18:54:46.876Z,7.70
2018-12-24T18:57:17.601Z,8.23
2018-12-24T18:59:55.352Z,21.90
2018-12-24T19:02:30.463Z,10.80
2018-12-24T19:05:16.497Z,8.10
2018-12-24T19:07:38.818Z,9.43
2018-12-24T19:13:20.277Z,9.20
2018-12-24T19:15:57.987Z,10.33
2018-12-24T19:18:45.987Z,8.63
2018-12-24T19:21:19.906Z,10.27
2018-12-24T19:23:54.857Z,11.23
2018-12-24T19:26:31.270Z,17.90
2018-12-24T19:29:05.509Z,16.50
2018-12-24T19:31:38.166Z,17.50
2018-12-24T19:34:29.657Z,20.67
2018-12-24T19:37:16.725Z,16.30
2018-12-24T19:39:53.710Z,16.17
2018-12-24T19:42:31.435Z,17.70
2018-12-24T19:45:18.711Z,17.90
2018-12-24T19:47:50.069Z,17.50
2018-12-24T19:50:17.990Z,17.80
2018-12-24T19:52:46.745Z,17.50
2018-12-24T19:55:14.754Z,16.57
2018-12-24T19:57:43.676Z,16.03
2018-12-24T20:00:11.352Z,17.70
2018-12-24T20:02:38.977Z,16.30
2018-12-24T20:05:09.314Z,15.33
2018-12-24T20:07:38.591Z,16.27
2018-12-24T20:10:32.711Z,14.07
2018-12-24T20:13:22.309Z,17.90
2018-12-24T20:16:00.284Z,14.20
2018-12-24T20:18:45.989Z,14.70
2018-12-24T20:21:16.175Z,15.03
2018-12-24T20:24:04.612Z,11.70
2018-12-24T20:26:36.623Z,12.20
2018-12-24T20:29:22.645Z,12.00
2018-12-24T20:31:54.478Z,15.30
2018-12-24T20:34:27.152Z,11.40
2018-12-24T20:36:57.716Z,12.83
2018-12-24T20:39:25.504Z,12.60
2018-12-24T20:41:53.304Z,12.67
2018-12-24T20:44:21.598Z,12.00
2018-12-24T20:46:51.701Z,12.43
2018-12-24T20:49:19.734Z,13.43
2018-12-24T20:51:47.629Z,10.70
2018-12-24T20:54:15.700Z,13.43
2018-12-24T20:56:59.854Z,12.07
2018-12-24T20:59:27.504Z,13.03
2018-12-24T21:01:55.760Z,13.70
2018-12-24T21:05:16.745Z,13.43
2018-12-24T21:07:16.863Z,12.07
2018-12-24T21:09:48.862Z,15.80
2018-12-24T21:12:19.035Z,13.20
2018-12-24T21:14:46.884Z,14.80
2018-12-24T21:17:14.477Z,13.80
2018-12-24T21:19:47.761Z,14.27
2018-12-24T21:22:24.371Z,16.30
2018-12-24T21:24:57.704Z,16.43
2018-12-24T21:27:26.712Z,20.80
2018-12-24T21:29:54.780Z,17.40
2018-12-24T21:32:23.200Z,20.37
2018-12-24T21:34:51.586Z,20.33
2018-12-24T21:37:19.952Z,18.23
2018-12-24T21:39:48.613Z,15.27
2018-12-24T21:42:16.572Z,20.40
2018-12-24T21:44:53.545Z,19.40
2018-12-24T21:47:21.854Z,13.80
2018-12-24T21:49:59.675Z,15.47
2018-12-24T21:52:44.247Z,18.23
2018-12-24T21:55:18.214Z,15.07
2018-12-24T21:58:23.017Z,16.70
2018-12-24T22:00:51.474Z,22.10
2018-12-24T22:03:21.913Z,19.13
2018-12-24T22:05:50.474Z,16.70
2018-12-24T22:08:18.832Z,16.93
2018-12-24T22:10:51.611Z,16.77
2018-12-24T22:13:22.986Z,14.10
2018-12-24T22:15:53.121Z,16.10
2018-12-24T22:18:32.208Z,17.40
2018-12-24T22:21:02.955Z,15.20
2018-12-24T22:23:32.476Z,15.77
2018-12-24T22:26:00.661Z,14.57
2018-12-24T22:28:29.174Z,17.37
2018-12-24T22:30:57.278Z,15.87
2018-12-24T22:33:27.006Z,16.43
2018-12-24T22:36:03.696Z,15.67
2018-12-24T22:38:34.849Z,11.70
2018-12-24T22:41:06.351Z,11.70
2018-12-24T22:43:42.889Z,13.90
2018-12-24T22:46:12.979Z,14.63
2018-12-24T22:48:45.581Z,16.67
2018-12-24T22:51:16.656Z,15.33
2018-12-24T22:53:45.855Z,13.47
2018-12-24T22:56:18.514Z,14.90
2018-12-24T22:58:47.401Z,14.80
2018-12-24T23:01:24.393Z,14.80
2018-12-24T23:03:57.524Z,13.90
2018-12-24T23:06:27.230Z,15.93
2018-12-24T23:08:58.438Z,14.57
2018-12-24T23:11:26.865Z,14.50
2018-12-24T23:14:06.040Z,14.97
2018-12-24T23:16:35.788Z,14.00
2018-12-24T23:19:05.773Z,13.67
2018-12-24T23:21:39.372Z,18.27
2018-12-24T23:24:11.000Z,15.47
2018-12-24T23:26:42.085Z,19.80
2018-12-24T23:29:18.899Z,16.07
2018-12-24T23:31:47.016Z,16.30
2018-12-24T23:34:16.152Z,18.97
2018-12-24T23:36:49.675Z,16.00
2018-12-24T23:39:24.750Z,17.60
2018-12-24T23:41:57.805Z,18.13
2018-12-24T23:44:33.668Z,15.13
2018-12-24T23:47:02.477Z,13.90
2018-12-24T23:49:32.842Z,16.90
2018-12-24T23:52:03.426Z,16.97
2018-12-24T23:54:34.064Z,14.13
2018-12-24T23:57:02.445Z,13.13
2018-12-24T23:59:30.870Z,13.23
